Terminal Aerodrome Forecast
Issued by NWS Austin/San Antonio, TX

Home | Current Version | Previous Version | Text Only | Print | Product List | Glossary On
Versions: 1 2 3 4 5 6 7 8 9 10 11 12 13 14 15 16 17 18
043
FTUS44 KEWX 242206 AAB
TAFAUS
TAF AMD
KAUS 242206Z 2422/2524 19010KT P6SM SCT040 BKN100
     FM250700 14006KT P6SM OVC015
     FM251000 12003KT 3SM BR OVC007
     FM251500 14007KT P6SM VCSH BKN015 BKN030
     FM251900 12010KT P6SM VCTS BKN045CB=

USA.gov is the U.S. government's official web portal to all federal, state and local government web resources and services.